Denver, Colorado
Traffic Map
Current Weather Conditions
Denver, Colorado
Overcast Rain Showers
Overcast

Feels Like: 2°
Wind Chill: Ceiling: 4000
Heat Index: Visibility: 10mi
Dew Point: -1° Wind: 10mph
Humidity: 65% Direction: 190° (S)
Pressure: 30.1in Gusts: 0mph
Raw Report DataKBKF 170355Z 19009KT 10SM VCSH OVC040 05/M01 A3010 RMK SLP173
Traffic Incident Summary
Active as of:
Severity:
Category:
InformationThere was an issue retrieving the traffic information for this location. Please try a different location or try again shortly.
Advertisements
At Last! Intellicast now available for iPhone and Android